Time;durP1;ratioP1;P1;durP2;ratioP2;P2;SDS_P1;SDS_P2;PMS_P1;PMS_P2;Temp;Humidity;BMP_temperature;BMP_pressure;BME280_temperature;BME280_humidity;BME280_pressure;Samples;Min_cycle;Max_cycle;Signal;HPM_P1;HPM_P2
2021/12/11 00:01:38;;;;;;;17.77;11.43;;;-0.80;99.90;;;;;;4986834;28;20099;-68
2021/12/11 00:04:13;;;;;;;19.65;10.93;;;-0.90;99.90;;;;;;4971386;28;20509;-68
2021/12/11 00:06:49;;;;;;;19.17;10.48;;;-0.80;99.90;;;;;;4981130;28;20118;-68
2021/12/11 00:09:22;;;;;;;20.20;11.48;;;-0.90;99.90;;;;;;4991711;28;20042;-68
2021/12/11 00:11:53;;;;;;;19.52;10.23;;;-1.00;99.90;;;;;;4993133;28;20039;-68
2021/12/11 00:14:21;;;;;;;16.77;10.02;;;-0.80;99.90;;;;;;4992287;28;20613;-68
2021/12/11 00:16:47;;;;;;;20.23;10.57;;;-1.70;99.90;;;;;;5019118;28;20735;-68
2021/12/11 00:19:20;;;;;;;22.33;10.90;;;-1.00;99.90;;;;;;5060898;28;20062;-68
2021/12/11 00:21:46;;;;;;;21.02;10.93;;;-1.60;99.90;;;;;;5072489;28;20445;-68
2021/12/11 00:24:25;;;;;;;18.75;11.20;;;-1.40;99.90;;;;;;5066562;28;20083;-68
2021/12/11 00:26:59;;;;;;;18.60;11.50;;;-1.40;99.90;;;;;;5055533;28;20038;-70
2021/12/11 00:29:27;;;;;;;22.67;10.73;;;-1.30;99.90;;;;;;4997939;28;20038;-68
2021/12/11 00:32:00;;;;;;;20.20;10.52;;;-1.90;99.90;;;;;;5026253;28;20073;-68
2021/12/11 00:34:26;;;;;;;19.88;10.65;;;-1.50;99.90;;;;;;5071666;28;20028;-69
2021/12/11 00:36:58;;;;;;;17.02;10.23;;;-1.70;99.90;;;;;;5040522;28;20042;-69
2021/12/11 00:39:25;;;;;;;16.77;10.70;;;-1.70;99.90;;;;;;5013673;28;20086;-68
2021/12/11 00:41:56;;;;;;;18.23;10.82;;;-1.20;99.90;;;;;;5059475;28;20072;-68
2021/12/11 00:44:47;;;;;;;22.73;11.95;;;-1.80;99.90;;;;;;4993824;28;20114;-68
2021/12/11 00:47:22;;;;;;;17.20;10.60;;;-1.00;99.90;;;;;;5030912;28;20055;-67
2021/12/11 00:49:58;;;;;;;19.02;12.82;;;-1.30;99.90;;;;;;5060765;28;20054;-67
2021/12/11 00:52:33;;;;;;;20.77;13.05;;;-1.70;99.90;;;;;;5045210;28;20081;-67
2021/12/11 00:55:00;;;;;;;24.40;13.48;;;-1.50;99.90;;;;;;4980718;28;20049;-69
2021/12/11 00:57:26;;;;;;;20.25;11.65;;;-1.70;99.90;;;;;;4981373;28;20513;-68
2021/12/11 01:00:23;;;;;;;28.00;15.50;;;-1.40;99.90;;;;;;4990824;28;20054;-68
2021/12/11 01:02:54;;;;;;;25.15;14.15;;;-1.60;99.90;;;;;;4977707;28;20057;-68
2021/12/11 01:05:23;;;;;;;21.50;12.35;;;-0.80;99.90;;;;;;4990586;28;20046;-68
2021/12/11 01:07:49;;;;;;;24.10;13.00;;;-1.20;99.90;;;;;;5026980;28;20056;-68
2021/12/11 01:10:25;;;;;;;23.80;14.15;;;-1.30;99.90;;;;;;5062260;28;20053;-68
2021/12/11 01:13:00;;;;;;;26.95;14.68;;;-0.80;99.90;;;;;;5028215;28;20492;-69
2021/12/11 01:15:26;;;;;;;24.05;12.68;;;-1.40;99.90;;;;;;4996817;28;20105;-68
2021/12/11 01:18:44;;;;;;;27.15;14.15;;;0.10;99.90;;;;;;5002321;28;20045;-68
2021/12/11 01:21:02;;;;;;;21.30;13.00;;;-1.40;99.90;;;;;;5060687;28;20141;-68
2021/12/11 01:26:03;;;;;;;24.48;13.68;;;-0.90;99.90;;;;;;4999888;28;20050;-68
2021/12/11 01:28:29;;;;;;;26.67;13.73;;;-0.90;99.90;;;;;;5037712;28;20141;-68
2021/12/11 01:30:56;;;;;;;22.50;12.80;;;-1.60;99.90;;;;;;5037776;28;20772;-68
2021/12/11 01:33:22;;;;;;;24.65;14.20;;;-0.70;99.90;;;;;;5025061;28;20046;-68
2021/12/11 01:35:48;;;;;;;20.45;12.82;;;-1.60;99.90;;;;;;5032864;28;20042;-69
2021/12/11 01:38:18;;;;;;;19.58;12.43;;;-0.90;99.90;;;;;;5026995;28;20046;-68
2021/12/11 01:40:49;;;;;;;24.38;13.25;;;-0.90;99.90;;;;;;5024410;28;20098;-69
2021/12/11 01:43:15;;;;;;;21.10;11.95;;;-0.80;99.90;;;;;;5034539;28;20042;-69
2021/12/11 01:45:45;;;;;;;22.45;12.75;;;-0.90;99.90;;;;;;5009221;28;20104;-69
2021/12/11 01:48:18;;;;;;;23.00;13.85;;;-1.30;99.90;;;;;;5032680;28;20043;-69
2021/12/11 01:50:47;;;;;;;25.48;13.93;;;-0.70;99.90;;;;;;5054545;28;20036;-69
2021/12/11 01:53:25;;;;;;;23.48;14.30;;;-0.60;99.90;;;;;;5046266;28;20031;-69
2021/12/11 01:55:59;;;;;;;30.08;14.80;;;-1.20;99.90;;;;;;5014175;28;20034;-67
2021/12/11 01:58:36;;;;;;;26.67;14.23;;;-0.70;99.90;;;;;;5015611;28;20061;-70
2021/12/11 02:01:34;;;;;;;26.27;14.50;;;-1.10;99.90;;;;;;4996415;28;20117;-69
2021/12/11 02:04:01;;;;;;;24.00;13.48;;;-1.00;99.90;;;;;;5032593;28;20101;-67
2021/12/11 02:06:29;;;;;;;26.63;14.02;;;0.20;99.90;;;;;;5005123;28;20065;-69
2021/12/11 02:08:55;;;;;;;25.95;13.73;;;-0.20;99.90;;;;;;5031148;28;20043;-69
2021/12/11 02:11:25;;;;;;;26.73;14.52;;;-1.00;99.90;;;;;;5084696;28;20042;-67
2021/12/11 02:14:00;;;;;;;29.02;14.88;;;-0.30;99.90;;;;;;5041206;28;20038;-67
2021/12/11 02:16:38;;;;;;;;;;;-1.20;99.90;;;;;;4978206;28;20041;-67
2021/12/11 02:19:11;;;;;;;22.00;13.15;;;-1.50;99.90;;;;;;5009108;28;19921;-67
2021/12/11 02:22:03;;;;;;;22.75;12.85;;;-1.40;99.90;;;;;;5006911;28;20046;-67
2021/12/11 02:24:40;;;;;;;24.48;13.27;;;-1.50;99.90;;;;;;5004416;28;20051;-67
2021/12/11 02:27:33;;;;;;;21.23;11.77;;;-1.80;99.90;;;;;;5006571;28;20073;-67
2021/12/11 02:30:20;;;;;;;24.85;13.75;;;-1.80;99.90;;;;;;4994570;28;20065;-67
2021/12/11 02:32:55;;;;;;;28.08;15.48;;;-1.90;99.90;;;;;;5064333;28;20115;-66
2021/12/11 02:35:30;;;;;;;26.90;13.98;;;-1.60;99.90;;;;;;4992353;28;20078;-66
2021/12/11 02:38:10;;;;;;;23.33;13.77;;;-1.40;99.90;;;;;;5020517;28;20084;-67
2021/12/11 02:41:01;;;;;;;26.45;14.68;;;-1.40;99.90;;;;;;5009366;28;20109;-67
2021/12/11 02:43:54;;;;;;;28.30;15.02;;;-1.50;99.90;;;;;;4964365;28;20051;-67
2021/12/11 02:46:32;;;;;;;25.67;15.48;;;-1.00;99.90;;;;;;5021075;28;20369;-68
2021/12/11 02:49:05;;;;;;;26.67;15.13;;;-1.90;99.90;;;;;;5004085;28;20050;-68
2021/12/11 02:51:47;;;;;;;27.15;14.18;;;-1.60;99.90;;;;;;4994890;28;20442;-68
2021/12/11 02:54:44;;;;;;;24.20;14.23;;;-1.60;99.90;;;;;;4989581;28;20129;-68
2021/12/11 02:57:29;;;;;;;25.90;15.00;;;-1.40;99.90;;;;;;5030212;28;20090;-68
2021/12/11 02:59:55;;;;;;;21.85;13.40;;;-1.90;99.90;;;;;;5056576;28;20046;-68
2021/12/11 03:02:25;;;;;;;25.30;14.60;;;-1.70;99.90;;;;;;4993784;28;20038;-68
2021/12/11 03:04:54;;;;;;;27.15;14.85;;;-1.20;99.90;;;;;;4970902;28;20497;-68
2021/12/11 03:07:35;;;;;;;25.58;13.95;;;-1.30;99.90;;;;;;4997678;28;20461;-68
2021/12/11 03:10:11;;;;;;;24.08;13.95;;;-1.50;99.90;;;;;;4952437;28;20058;-68
2021/12/11 03:12:37;;;;;;;30.20;15.50;;;-1.10;99.90;;;;;;4991105;28;20042;-68
2021/12/11 03:15:06;;;;;;;31.05;14.48;;;-1.30;99.90;;;;;;4988533;28;20054;-68
2021/12/11 03:17:31;;;;;;;28.90;16.67;;;-1.20;99.90;;;;;;5013943;28;20089;-68
2021/12/11 03:19:57;;;;;;;37.97;19.70;;;-0.30;99.90;;;;;;4972148;28;20077;-68
2021/12/11 03:22:29;;;;;;;37.05;19.75;;;0.20;99.90;;;;;;4962024;28;20038;-68
2021/12/11 03:24:59;;;;;;;37.92;18.02;;;-0.80;99.90;;;;;;4972004;28;20501;-68
2021/12/11 03:27:26;;;;;;;35.10;18.60;;;-0.10;99.90;;;;;;4990423;28;20042;-68
2021/12/11 03:29:52;;;;;;;28.70;16.80;;;-0.10;99.90;;;;;;4989608;28;20042;-68
2021/12/11 03:32:20;;;;;;;30.83;16.80;;;-0.80;99.90;;;;;;4996116;28;20088;-68
2021/12/11 03:34:47;;;;;;;30.13;15.85;;;-0.30;99.90;;;;;;4988511;28;20073;-68
2021/12/11 03:37:16;;;;;;;30.45;16.45;;;-1.30;99.90;;;;;;4995882;28;20055;-68
2021/12/11 03:39:45;;;;;;;29.88;16.08;;;-1.40;99.90;;;;;;5030797;28;20043;-68
2021/12/11 03:42:23;;;;;;;27.00;15.48;;;-1.20;99.90;;;;;;4994803;28;20414;-68
2021/12/11 03:44:50;;;;;;;30.50;17.08;;;-1.40;99.90;;;;;;4991742;28;20092;-68
2021/12/11 03:47:23;;;;;;;33.15;19.05;;;-0.50;99.90;;;;;;5002068;28;20440;-68
2021/12/11 03:49:48;;;;;;;37.28;19.45;;;0.20;99.90;;;;;;5065184;28;20125;-68
2021/12/11 03:52:15;;;;;;;36.10;20.08;;;-1.10;99.90;;;;;;5003180;28;20115;-68
2021/12/11 03:54:43;;;;;;;31.85;15.95;;;-0.10;99.90;;;;;;5086727;28;20076;-69
2021/12/11 03:57:15;;;;;;;29.90;15.40;;;-0.70;99.90;;;;;;5049741;28;20042;-69
2021/12/11 03:59:43;;;;;;;33.22;16.60;;;-1.00;99.90;;;;;;4992415;28;20053;-68
2021/12/11 04:02:12;;;;;;;31.38;17.73;;;-0.80;99.90;;;;;;5021978;28;20126;-69
2021/12/11 04:04:45;;;;;;;35.67;19.92;;;-0.40;99.90;;;;;;5076113;28;20036;-68
2021/12/11 04:07:16;;;;;;;34.72;18.05;;;0.20;99.90;;;;;;5052116;28;20040;-68
2021/12/11 04:09:44;;;;;;;36.97;19.65;;;0.30;99.90;;;;;;4973570;28;20038;-69
2021/12/11 04:12:10;;;;;;;37.05;18.60;;;0.00;99.90;;;;;;5010059;28;20036;-69
2021/12/11 04:14:41;;;;;;;40.67;21.63;;;-0.10;99.90;;;;;;5048549;28;20082;-69
2021/12/11 04:17:10;;;;;;;35.17;19.23;;;-0.40;99.90;;;;;;5051810;28;20050;-70
2021/12/11 04:19:37;;;;;;;34.40;18.92;;;-0.60;99.90;;;;;;5035716;28;20126;-69
2021/12/11 04:22:04;;;;;;;33.95;17.42;;;-0.70;99.90;;;;;;4992582;28;20045;-68
2021/12/11 04:24:31;;;;;;;31.02;17.40;;;-0.20;99.90;;;;;;5034046;28;20032;-69
2021/12/11 04:26:59;;;;;;;30.35;17.42;;;-0.30;99.90;;;;;;4991163;28;20038;-69
2021/12/11 04:29:25;;;;;;;32.53;18.58;;;-1.10;99.90;;;;;;5013571;28;20046;-69
2021/12/11 04:31:51;;;;;;;29.92;16.35;;;-0.80;99.90;;;;;;5031264;28;20390;-69
2021/12/11 04:34:19;;;;;;;28.77;15.82;;;-0.40;99.90;;;;;;5044716;28;20040;-69
2021/12/11 04:36:59;;;;;;;29.77;17.00;;;-0.50;99.90;;;;;;5025431;28;20047;-68
2021/12/11 04:39:27;;;;;;;26.48;14.48;;;-1.30;99.90;;;;;;4985504;28;20069;-68
2021/12/11 04:42:11;;;;;;;25.45;15.55;;;-0.80;99.90;;;;;;4981294;28;20065;-69
2021/12/11 04:44:43;;;;;;;28.77;15.65;;;-1.00;99.90;;;;;;5022683;28;20042;-69
2021/12/11 04:47:31;;;;;;;25.98;15.65;;;-0.90;99.90;;;;;;5025166;28;20054;-68
2021/12/11 04:50:03;;;;;;;25.90;15.25;;;-0.80;99.90;;;;;;5022339;28;20032;-69
2021/12/11 04:52:34;;;;;;;26.65;15.85;;;-1.00;99.90;;;;;;5044894;28;20047;-68
2021/12/11 05:11:37;;;;;;;32.80;17.63;;;-0.40;99.90;;;;;;4974075;28;20042;-69
2021/12/11 05:14:05;;;;;;;35.03;16.98;;;-0.30;99.90;;;;;;5051370;28;20119;-69
2021/12/11 05:16:31;;;;;;;35.90;17.63;;;-1.00;99.90;;;;;;5057757;28;20049;-69
2021/12/11 05:18:57;;;;;;;28.20;16.20;;;-0.20;99.90;;;;;;5055397;28;20483;-69
2021/12/11 05:21:23;;;;;;;38.58;17.73;;;-0.10;99.90;;;;;;4990768;28;20049;-69
2021/12/11 05:23:51;;;;;;;49.80;22.45;;;-0.70;99.90;;;;;;4987760;28;20046;-69
2021/12/11 05:26:18;;;;;;;47.80;23.08;;;-0.40;99.90;;;;;;4990140;28;20093;-69
2021/12/11 05:28:45;;;;;;;45.13;22.85;;;-0.50;99.90;;;;;;5013630;28;20086;-69
2021/12/11 05:31:10;;;;;;;47.05;24.70;;;0.50;99.90;;;;;;4973403;28;20069;-69
2021/12/11 05:33:38;;;;;;;49.95;24.10;;;0.50;99.90;;;;;;5010341;28;20042;-68
2021/12/11 05:36:06;;;;;;;49.65;24.33;;;-0.40;99.90;;;;;;4990459;28;20571;-68
2021/12/11 05:38:35;;;;;;;61.08;27.85;;;1.30;99.90;;;;;;5000650;28;20062;-69
2021/12/11 05:41:03;;;;;;;74.30;31.63;;;-0.20;99.90;;;;;;4965778;28;20527;-69
2021/12/11 05:43:31;;;;;;;75.70;32.72;;;0.50;99.90;;;;;;4955686;28;20045;-69
2021/12/11 05:45:56;;;;;;;65.80;29.73;;;0.40;99.90;;;;;;4970384;28;20043;-69
2021/12/11 05:48:24;;;;;;;70.45;30.40;;;0.90;99.90;;;;;;4973214;28;20054;-70
2021/12/11 05:50:54;;;;;;;64.28;30.08;;;0.70;99.90;;;;;;5031953;28;20046;-70
2021/12/11 05:53:22;;;;;;;76.75;31.15;;;0.60;99.90;;;;;;4981012;28;20181;-69
2021/12/11 05:55:51;;;;;;;50.35;25.05;;;1.00;99.90;;;;;;4969202;28;20047;-69
2021/12/11 05:59:04;;;;;;;47.97;23.77;;;0.70;99.90;;;;;;5012468;28;20051;-69
2021/12/11 06:01:05;;;;;;;60.70;26.35;;;0.50;99.90;;;;;;4974559;28;20055;-69
2021/12/11 06:03:31;;;;;;;61.10;27.52;;;1.60;99.90;;;;;;4987935;28;20039;-70
2021/12/11 06:05:59;;;;;;;51.58;25.63;;;0.70;99.90;;;;;;4970728;28;20042;-70
2021/12/11 06:08:25;;;;;;;51.13;24.25;;;-0.10;99.90;;;;;;4972638;28;20050;-69
2021/12/11 06:10:51;;;;;;;55.40;27.63;;;-0.10;99.90;;;;;;5062234;28;20119;-69
2021/12/11 06:13:17;;;;;;;53.67;23.70;;;0.90;99.90;;;;;;5037187;28;20491;-69
2021/12/11 06:15:43;;;;;;;60.25;28.20;;;0.90;99.90;;;;;;4990854;28;20113;-69
2021/12/11 06:18:14;;;;;;;55.70;27.10;;;0.10;99.90;;;;;;4969025;28;20055;-69
2021/12/11 06:20:40;;;;;;;74.68;32.13;;;1.10;99.90;;;;;;4976650;28;20125;-70
2021/12/11 06:23:06;;;;;;;62.17;28.10;;;0.40;99.90;;;;;;5053469;28;20486;-70
2021/12/11 06:25:34;;;;;;;72.40;31.85;;;1.10;99.90;;;;;;5000166;28;20034;-70
2021/12/11 06:28:02;;;;;;;69.13;32.08;;;-0.10;99.90;;;;;;4953064;28;20086;-70
2021/12/11 06:30:29;;;;;;;55.13;28.73;;;0.60;99.90;;;;;;4980961;28;20161;-69
2021/12/11 06:32:56;;;;;;;63.60;30.52;;;-0.10;99.90;;;;;;5071000;28;20197;-69
2021/12/11 06:35:43;;;;;;;57.75;28.77;;;0.90;99.90;;;;;;5017005;28;20043;-69
2021/12/11 06:38:11;;;;;;;45.67;24.27;;;0.40;99.90;;;;;;4982007;28;20050;-69
2021/12/11 06:40:37;;;;;;;43.95;22.65;;;0.70;99.90;;;;;;4991514;28;20407;-68
2021/12/11 06:43:04;;;;;;;44.70;22.90;;;0.00;99.90;;;;;;4978126;28;20046;-69
2021/12/11 06:45:30;;;;;;;48.17;24.25;;;0.90;99.90;;;;;;5042091;28;20042;-69
2021/12/11 06:47:56;;;;;;;54.08;24.83;;;1.60;99.90;;;;;;5011579;28;20046;-68
2021/12/11 06:50:22;;;;;;;51.60;26.15;;;0.80;99.90;;;;;;4971960;28;20046;-69
2021/12/11 06:52:49;;;;;;;48.33;24.70;;;0.10;99.90;;;;;;5082324;28;20127;-69
2021/12/11 06:55:16;;;;;;;53.40;26.10;;;-0.10;99.90;;;;;;5007087;28;20079;-69
2021/12/11 06:57:43;;;;;;;49.08;25.40;;;0.80;99.90;;;;;;4972200;28;20054;-68
2021/12/11 07:00:09;;;;;;;51.53;24.63;;;-0.10;99.90;;;;;;5012858;28;20052;-69
2021/12/11 07:02:35;;;;;;;47.17;24.13;;;0.00;99.90;;;;;;5007899;28;20034;-69
2021/12/11 07:05:02;;;;;;;44.60;22.85;;;0.20;99.90;;;;;;4979050;28;20355;-69
2021/12/11 07:07:33;;;;;;;45.78;24.02;;;0.00;99.90;;;;;;4976575;28;20081;-69
2021/12/11 07:09:59;;;;;;;49.55;23.75;;;0.10;99.90;;;;;;4980292;28;20050;-69
2021/12/11 07:12:25;;;;;;;57.78;28.95;;;0.00;99.90;;;;;;4988066;28;20076;-69
2021/12/11 07:14:51;;;;;;;48.65;25.20;;;0.00;99.90;;;;;;4990396;28;20046;-68
2021/12/11 07:17:18;;;;;;;55.03;27.45;;;-0.10;99.90;;;;;;5015834;28;20059;-68
2021/12/11 07:19:44;;;;;;;48.65;24.85;;;0.80;99.90;;;;;;4992755;28;20042;-69
2021/12/11 07:22:10;;;;;;;54.05;27.65;;;0.70;99.90;;;;;;5046942;28;20160;-69
2021/12/11 07:24:41;;;;;;;51.63;27.73;;;0.60;99.90;;;;;;5031753;28;20035;-69
2021/12/11 07:27:09;;;;;;;53.60;26.15;;;-0.10;99.90;;;;;;4983335;28;20148;-70
2021/12/11 07:29:36;;;;;;;43.08;24.02;;;0.00;99.90;;;;;;4973355;28;20402;-70
2021/12/11 07:32:04;;;;;;;44.05;23.35;;;-0.10;99.90;;;;;;5001371;28;20133;-71
2021/12/11 07:34:30;;;;;;;47.38;24.15;;;0.60;99.90;;;;;;5000996;28;20044;-70
2021/12/11 07:36:56;;;;;;;49.97;26.00;;;0.20;99.90;;;;;;5054865;28;20049;-69
2021/12/11 07:39:24;;;;;;;40.30;22.15;;;-0.20;99.90;;;;;;4990283;28;20047;-69
2021/12/11 07:41:53;;;;;;;55.28;27.15;;;-0.30;99.90;;;;;;5032248;28;20041;-70
2021/12/11 07:44:20;;;;;;;53.90;27.55;;;0.20;99.90;;;;;;4992218;28;20038;-69
2021/12/11 07:46:46;;;;;;;44.70;23.63;;;0.50;99.90;;;;;;5011983;28;20384;-69
2021/12/11 07:49:14;;;;;;;40.80;22.27;;;-0.10;99.90;;;;;;5015545;28;20074;-70
2021/12/11 07:51:41;;;;;;;50.60;24.80;;;0.60;99.90;;;;;;4987219;28;20173;-70
2021/12/11 07:54:07;;;;;;;44.75;25.33;;;-0.30;99.90;;;;;;4975148;28;20041;-70
2021/12/11 07:56:34;;;;;;;52.35;27.13;;;0.30;99.90;;;;;;4975484;28;20121;-70
2021/12/11 07:59:03;;;;;;;52.50;26.77;;;0.80;99.90;;;;;;5069211;28;20034;-69
2021/12/11 08:01:32;;;;;;;53.75;26.50;;;1.00;99.90;;;;;;4999657;28;20034;-69
2021/12/11 08:04:00;;;;;;;47.83;25.45;;;-0.20;99.90;;;;;;4973174;28;20045;-69
2021/12/11 08:06:27;;;;;;;51.42;26.90;;;0.50;99.90;;;;;;4977825;28;20071;-69
2021/12/11 08:08:53;;;;;;;61.97;27.98;;;0.80;99.90;;;;;;5007838;28;20076;-71
2021/12/11 08:11:20;;;;;;;46.17;23.95;;;0.60;99.90;;;;;;5086473;28;20032;-70
2021/12/11 08:13:48;;;;;;;56.20;27.77;;;1.10;99.90;;;;;;4961830;28;20095;-72
2021/12/11 08:16:19;;;;;;;42.08;23.15;;;0.40;99.90;;;;;;4998601;28;20050;-72
2021/12/11 08:18:45;;;;;;;47.42;25.20;;;-0.10;99.90;;;;;;5059183;28;20491;-69
2021/12/11 08:21:11;;;;;;;41.20;22.20;;;0.80;99.90;;;;;;5047476;28;20436;-69
2021/12/11 08:23:43;;;;;;;44.65;23.27;;;0.70;99.90;;;;;;4978894;28;20384;-69
2021/12/11 08:26:10;;;;;;;46.53;23.70;;;0.00;99.90;;;;;;5036965;28;20050;-69
2021/12/11 08:28:36;;;;;;;61.28;29.45;;;0.40;99.90;;;;;;4970611;28;20060;-68
2021/12/11 08:31:03;;;;;;;59.55;30.27;;;1.00;99.90;;;;;;4972387;28;20054;-69
2021/12/11 08:33:28;;;;;;;54.63;27.80;;;0.30;99.90;;;;;;4964089;28;20134;-69
2021/12/11 08:35:55;;;;;;;53.03;27.55;;;0.70;99.90;;;;;;4971479;28;20113;-69
2021/12/11 08:38:24;;;;;;;46.50;25.77;;;0.70;99.90;;;;;;5013813;28;20509;-70
2021/12/11 08:40:56;;;;;;;42.38;25.58;;;0.20;99.90;;;;;;5012883;28;20046;-69
2021/12/11 08:43:23;;;;;;;47.20;25.70;;;0.00;99.90;;;;;;4983355;28;20089;-69
2021/12/11 08:48:44;;;;;;;45.55;25.50;;;0.20;99.90;;;;;;4999665;28;20046;-70
2021/12/11 08:51:18;;;;;;;45.05;25.65;;;1.00;99.90;;;;;;4986263;28;20047;-69
2021/12/11 08:53:44;;;;;;;46.35;25.13;;;0.20;99.90;;;;;;4956826;28;20052;-72
2021/12/11 08:56:13;;;;;;;43.13;23.25;;;0.40;99.90;;;;;;4977913;28;20724;-69
2021/12/11 08:58:41;;;;;;;46.55;25.95;;;1.10;99.90;;;;;;4972625;28;20058;-69
2021/12/11 09:01:16;;;;;;;44.40;25.92;;;0.60;99.90;;;;;;4980596;28;20695;-69
2021/12/11 09:03:47;;;;;;;49.40;26.50;;;1.20;99.90;;;;;;4964951;28;20190;-69
2021/12/11 09:06:27;;;;;;;50.42;27.63;;;1.60;99.90;;;;;;4995065;28;20179;-69
2021/12/11 09:09:00;;;;;;;54.05;27.40;;;1.20;99.90;;;;;;5004706;28;20050;-69
2021/12/11 09:11:34;;;;;;;51.60;28.77;;;0.80;99.90;;;;;;4955880;28;20092;-69
2021/12/11 09:14:23;;;;;;;56.40;28.05;;;1.40;99.90;;;;;;4951271;28;20058;-69
2021/12/11 09:16:57;;;;;;;55.72;29.80;;;2.20;99.90;;;;;;4967159;28;20051;-70
2021/12/11 09:19:32;;;;;;;61.47;31.42;;;1.80;99.90;;;;;;4953489;28;20046;-69
2021/12/11 09:22:14;;;;;;;56.53;29.80;;;1.70;99.90;;;;;;4963588;28;20092;-70
2021/12/11 09:24:55;;;;;;;42.72;24.77;;;2.20;99.90;;;;;;4947943;28;20167;-69
2021/12/11 09:27:28;;;;;;;37.35;21.42;;;2.10;99.90;;;;;;4968515;28;20125;-70
2021/12/11 09:30:20;;;;;;;32.42;20.48;;;1.80;99.90;;;;;;4965397;28;20038;-70
2021/12/11 09:32:54;;;;;;;30.33;18.65;;;1.70;99.90;;;;;;4967255;28;20706;-70
2021/12/11 09:35:28;;;;;;;31.98;19.00;;;2.60;99.90;;;;;;4968512;28;20050;-70
2021/12/11 09:38:00;;;;;;;30.50;17.55;;;2.60;99.90;;;;;;4957950;28;20066;-69
2021/12/11 09:40:41;;;;;;;33.17;18.42;;;2.90;99.90;;;;;;4934734;28;20051;-70
2021/12/11 09:43:08;;;;;;;26.65;14.80;;;3.30;99.90;;;;;;4930101;28;20720;-70
2021/12/11 09:45:39;;;;;;;21.88;14.43;;;3.30;99.90;;;;;;4935784;28;20054;-69
2021/12/11 09:48:09;;;;;;;25.05;15.20;;;3.50;99.90;;;;;;4932689;28;20162;-70
2021/12/11 09:50:47;;;;;;;22.23;13.73;;;3.70;99.90;;;;;;4941768;28;20461;-70
2021/12/11 09:53:15;;;;;;;22.75;13.70;;;3.60;99.90;;;;;;4934132;28;20120;-70
2021/12/11 09:55:42;;;;;;;23.55;13.90;;;3.90;99.90;;;;;;4912885;29;20407;-70
2021/12/11 09:58:12;;;;;;;23.40;14.27;;;3.80;99.90;;;;;;4934043;28;20055;-70
2021/12/11 10:00:53;;;;;;;23.90;14.48;;;3.70;99.90;;;;;;4938232;28;20499;-69
2021/12/11 10:03:23;;;;;;;25.00;14.20;;;3.90;99.90;;;;;;4931075;28;20098;-70
2021/12/11 10:05:57;;;;;;;23.08;15.30;;;3.80;99.90;;;;;;4943883;28;20093;-69
2021/12/11 10:08:41;;;;;;;25.75;15.73;;;3.80;99.90;;;;;;4924697;28;20055;-70
2021/12/11 10:11:19;;;;;;;26.98;17.38;;;3.60;99.90;;;;;;4939741;28;20042;-70
2021/12/11 10:13:51;;;;;;;33.95;18.08;;;3.40;99.90;;;;;;4940419;28;20051;-70
2021/12/11 10:16:22;;;;;;;28.83;17.67;;;3.40;99.90;;;;;;4933758;28;20063;-70
2021/12/11 10:18:49;;;;;;;28.60;17.15;;;3.40;99.90;;;;;;4947133;28;20051;-70
2021/12/11 10:21:24;;;;;;;28.00;18.63;;;3.20;99.90;;;;;;4956990;28;20134;-70
2021/12/11 10:23:53;;;;;;;26.13;15.88;;;2.90;99.90;;;;;;4916426;29;20130;-70
2021/12/11 10:26:23;;;;;;;25.67;16.02;;;3.00;99.90;;;;;;5024729;28;20058;-70
2021/12/11 10:28:52;;;;;;;25.00;16.10;;;3.00;99.90;;;;;;4938356;28;20154;-70
2021/12/11 10:31:23;;;;;;;23.52;15.10;;;3.00;99.90;;;;;;4933853;28;20092;-70
2021/12/11 10:33:49;;;;;;;24.17;15.95;;;3.20;99.90;;;;;;4960344;28;20058;-70
2021/12/11 10:36:21;;;;;;;25.38;16.00;;;3.40;99.90;;;;;;4931837;28;20054;-70
2021/12/11 10:38:48;;;;;;;20.70;13.27;;;3.80;99.90;;;;;;4944954;28;20058;-71
2021/12/11 10:41:15;;;;;;;25.67;15.32;;;4.00;99.90;;;;;;4958141;28;20234;-71
2021/12/11 10:43:54;;;;;;;26.73;15.23;;;4.10;99.90;;;;;;4958064;28;20412;-70
2021/12/11 10:46:24;;;;;;;25.80;15.90;;;4.50;99.90;;;;;;4961570;28;20043;-70
2021/12/11 10:48:52;;;;;;;25.65;15.65;;;4.70;99.90;;;;;;4959971;28;20047;-71
2021/12/11 10:51:27;;;;;;;23.90;13.43;;;4.90;99.90;;;;;;4961689;28;20456;-70
2021/12/11 10:53:54;;;;;;;24.63;15.60;;;4.60;99.90;;;;;;4959780;28;20103;-71
2021/12/11 10:56:23;;;;;;;22.48;14.02;;;4.30;99.90;;;;;;4976374;28;20046;-71
2021/12/11 10:58:59;;;;;;;24.50;13.52;;;4.10;99.90;;;;;;4961118;28;20090;-71
2021/12/11 11:01:42;;;;;;;21.90;14.27;;;4.00;99.90;;;;;;4952886;28;20142;-70
2021/12/11 11:04:16;;;;;;;24.27;14.70;;;4.00;99.90;;;;;;4956910;28;20120;-71
2021/12/11 11:06:45;;;;;;;25.10;14.60;;;4.40;99.90;;;;;;4939493;28;20039;-71
2021/12/11 11:09:12;;;;;;;22.67;14.35;;;4.60;99.90;;;;;;4964725;28;20050;-71
2021/12/11 11:11:40;;;;;;;24.90;14.25;;;5.00;99.90;;;;;;4958840;28;20062;-70
2021/12/11 11:14:07;;;;;;;22.33;14.07;;;5.40;99.90;;;;;;4965052;28;20724;-71
2021/12/11 11:16:34;;;;;;;23.65;15.52;;;5.70;99.90;;;;;;4956879;28;20391;-70
2021/12/11 11:19:00;;;;;;;23.13;14.10;;;5.80;99.90;;;;;;4950414;28;20127;-71
2021/12/11 11:21:32;;;;;;;26.38;15.48;;;5.70;99.90;;;;;;4954460;28;20141;-70
2021/12/11 11:23:58;;;;;;;19.20;13.90;;;5.80;99.90;;;;;;4960641;28;20051;-70
2021/12/11 11:26:30;;;;;;;23.65;15.27;;;6.20;99.90;;;;;;4958527;28;20545;-70
2021/12/11 11:28:57;;;;;;;23.88;14.50;;;5.50;99.90;;;;;;4945983;28;20092;-70
2021/12/11 11:31:27;;;;;;;22.45;14.02;;;5.10;99.90;;;;;;4965979;28;20429;-70
2021/12/11 11:33:54;;;;;;;25.58;15.15;;;4.80;99.90;;;;;;4959331;28;20604;-71
2021/12/11 11:36:24;;;;;;;30.65;14.25;;;4.60;99.90;;;;;;4959874;28;20058;-70
2021/12/11 11:38:55;;;;;;;24.48;14.15;;;4.70;99.90;;;;;;4954698;28;20221;-71
2021/12/11 11:41:33;;;;;;;24.08;14.88;;;4.90;99.90;;;;;;4951024;28;20469;-70
2021/12/11 11:44:00;;;;;;;25.15;13.13;;;5.10;99.90;;;;;;4939358;28;20145;-72
2021/12/11 11:46:27;;;;;;;23.50;15.38;;;5.00;99.90;;;;;;4932329;28;20054;-71
2021/12/11 11:48:57;;;;;;;25.38;14.60;;;4.60;99.90;;;;;;4941531;28;20393;-72
2021/12/11 11:51:35;;;;;;;21.63;14.07;;;4.50;99.90;;;;;;4939506;28;20086;-72
2021/12/11 11:54:04;;;;;;;26.02;16.08;;;4.30;99.90;;;;;;4938727;28;20079;-71
2021/12/11 11:56:35;;;;;;;24.50;14.65;;;4.20;99.90;;;;;;4939222;28;20051;-72
2021/12/11 11:59:01;;;;;;;28.08;15.25;;;4.20;99.90;;;;;;4940197;28;20597;-71
2021/12/11 12:01:32;;;;;;;25.83;15.02;;;4.10;99.90;;;;;;4939233;28;20718;-71
2021/12/11 12:03:58;;;;;;;25.70;16.10;;;4.50;99.90;;;;;;4942770;28;20062;-70
2021/12/11 12:06:31;;;;;;;26.48;15.27;;;4.10;99.90;;;;;;5023217;28;20062;-71
2021/12/11 12:08:59;;;;;;;27.42;16.33;;;4.00;99.90;;;;;;4939787;28;20086;-70
2021/12/11 12:11:31;;;;;;;25.30;15.90;;;4.00;99.90;;;;;;4929719;28;20133;-71
2021/12/11 12:13:58;;;;;;;24.90;15.43;;;4.00;99.90;;;;;;4927702;28;20111;-70
2021/12/11 12:16:24;;;;;;;29.17;16.75;;;4.10;99.90;;;;;;4943350;29;20047;-71
2021/12/11 12:18:50;;;;;;;30.38;18.17;;;4.30;99.90;;;;;;4944000;28;20083;-70
2021/12/11 12:21:18;;;;;;;27.23;16.17;;;4.10;99.90;;;;;;4945461;28;20134;-71
2021/12/11 12:23:44;;;;;;;25.00;16.38;;;4.00;99.90;;;;;;4931342;28;20055;-71
2021/12/11 12:26:17;;;;;;;24.77;16.60;;;4.20;99.90;;;;;;4969674;28;20494;-70
2021/12/11 12:28:45;;;;;;;30.52;16.63;;;4.10;99.90;;;;;;4944558;28;20142;-70
2021/12/11 12:31:17;;;;;;;27.23;15.55;;;4.50;99.90;;;;;;4943411;28;20047;-71
2021/12/11 12:33:44;;;;;;;28.45;17.10;;;4.20;99.90;;;;;;4938963;28;20039;-71
2021/12/11 12:36:10;;;;;;;27.98;16.52;;;4.20;99.90;;;;;;4936529;28;20046;-71
2021/12/11 12:38:37;;;;;;;28.77;17.48;;;4.20;99.90;;;;;;4955463;28;20134;-72
2021/12/11 12:41:16;;;;;;;24.70;16.10;;;4.30;99.90;;;;;;4956918;28;20046;-71
2021/12/11 12:46:13;;;;;;;26.63;15.77;;;4.40;99.90;;;;;;4947173;28;20066;-71
2021/12/11 12:48:40;;;;;;;30.08;17.33;;;4.40;99.90;;;;;;4946850;28;20059;-72
2021/12/11 12:51:10;;;;;;;26.75;16.40;;;4.40;99.90;;;;;;4949663;28;20084;-72
2021/12/11 12:53:38;;;;;;;31.45;17.00;;;4.20;99.90;;;;;;4957416;28;20062;-72
2021/12/11 12:56:10;;;;;;;24.50;15.65;;;4.20;99.90;;;;;;4945479;28;20050;-71
2021/12/11 12:58:42;;;;;;;25.60;16.38;;;4.20;99.90;;;;;;4955593;28;20051;-71
2021/12/11 13:01:15;;;;;;;25.20;14.95;;;4.30;99.90;;;;;;4962506;28;20057;-71
2021/12/11 13:03:44;;;;;;;26.70;15.90;;;4.20;99.90;;;;;;4940239;28;20121;-71
2021/12/11 13:06:16;;;;;;;26.65;15.93;;;4.40;99.90;;;;;;4961585;28;20128;-71
2021/12/11 13:08:49;;;;;;;27.27;16.60;;;4.30;99.90;;;;;;4956271;28;20047;-71
2021/12/11 13:11:20;;;;;;;26.45;15.50;;;4.30;99.90;;;;;;4960940;28;20094;-71
2021/12/11 13:13:48;;;;;;;31.08;17.55;;;4.20;99.90;;;;;;4960459;28;20089;-71
2021/12/11 13:16:23;;;;;;;20.85;14.52;;;4.10;99.90;;;;;;4962199;28;20058;-71